Terminal Aerodrome Forecast
Issued by NWS

Home | Current Version | Previous Version | Graphics & Text | Print | Product List | Glossary On
Versions: 1 2 3 4 5 6 7 8 9 10 11 12 13
594
FTUS43 KGRB 150323 AAB
TAFCWA
TAF AMD
KCWA 150323Z 1503/1524 07009KT 5SM -SHRA OVC006 WS017/09040KT
     FM150400 03008G15KT 6SM -SHRA OVC006
     FM150900 34016G24KT 4SM SHRA OVC012
     FM151100 33020G30KT 4SM SHRA OVC012
     FM151400 32014G22KT P6SM BKN025
     FM151800 30011G17KT P6SM BKN040
     FM152200 29007KT P6SM SCT040
      AMD LTD TO CLD VIS AND WIND TIL 151100=

USA.gov is the U.S. government's official web portal to all federal, state and local government web resources and services.